createdAt,value
2023-02-11T14:46:23.049Z,11.60
2023-02-11T14:48:55.056Z,11.60
2023-02-11T14:53:57.806Z,11.60
2023-02-11T14:58:56.603Z,11.60
2023-02-11T15:01:35.144Z,11.60
2023-02-11T15:04:06.227Z,11.40
2023-02-11T15:09:31.136Z,11.70
2023-02-11T15:12:00.140Z,11.60
2023-02-11T15:14:34.360Z,11.60
2023-02-11T15:17:06.659Z,11.60
2023-02-11T15:22:10.789Z,11.40
2023-02-11T15:24:40.446Z,11.40
2023-02-11T15:27:16.032Z,11.40
2023-02-11T15:29:49.172Z,11.40
2023-02-11T15:32:21.552Z,11.40
2023-02-11T15:34:52.479Z,11.30
2023-02-11T15:37:26.555Z,11.30
2023-02-11T15:39:56.056Z,11.20
2023-02-11T15:42:27.673Z,11.20
2023-02-11T15:45:17.251Z,11.20
2023-02-11T15:47:51.653Z,11.20
2023-02-11T15:50:25.569Z,11.20
2023-02-11T15:55:23.771Z,11.10
2023-02-11T15:57:58.202Z,11.10
2023-02-11T16:00:35.633Z,11.00
2023-02-11T16:03:04.652Z,11.00
2023-02-11T16:05:36.622Z,10.90
2023-02-11T16:08:24.259Z,11.00
2023-02-11T16:10:59.147Z,10.90
2023-02-11T16:13:29.539Z,10.80
2023-02-11T16:16:02.314Z,10.80
2023-02-11T16:18:39.337Z,10.80
2023-02-11T16:21:09.571Z,10.80
2023-02-11T16:23:42.835Z,10.70
2023-02-11T16:26:17.416Z,10.70
2023-02-11T16:28:46.066Z,10.70
2023-02-11T16:31:14.793Z,10.70
2023-02-11T16:33:43.456Z,10.60
2023-02-11T16:36:14.922Z,10.60
2023-02-11T16:38:43.630Z,10.60
2023-02-11T16:41:12.754Z,10.40
2023-02-11T16:43:43.329Z,10.60
2023-02-11T16:46:15.142Z,10.60
2023-02-11T16:48:44.592Z,10.50
2023-02-11T16:51:13.691Z,10.60
2023-02-11T16:53:42.716Z,10.50
2023-02-11T16:56:18.669Z,10.50
2023-02-11T16:58:47.319Z,10.50
2023-02-11T17:01:17.064Z,10.40
2023-02-11T17:03:45.709Z,10.40
2023-02-11T17:06:15.044Z,10.30
2023-02-11T17:08:44.427Z,10.30
2023-02-11T17:11:14.571Z,10.30
2023-02-11T17:13:43.528Z,10.20
2023-02-11T17:16:15.228Z,10.20
2023-02-11T17:18:43.744Z,10.20
2023-02-11T17:21:12.526Z,10.10
2023-02-11T17:23:41.443Z,10.10
2023-02-11T17:26:10.703Z,10.10
2023-02-11T17:28:39.292Z,10.10
2023-02-11T17:31:11.059Z,10.10
2023-02-11T17:33:39.707Z,10.10
2023-02-11T17:36:09.652Z,10.00
2023-02-11T17:38:38.778Z,10.10
2023-02-11T17:41:07.407Z,10.10
2023-02-11T17:43:36.023Z,10.10
2023-02-11T17:46:07.391Z,10.00
2023-02-11T17:48:37.469Z,10.00
2023-02-11T17:51:08.749Z,10.00
2023-02-11T17:53:37.267Z,10.00
2023-02-11T17:56:07.176Z,9.90
2023-02-11T17:58:35.706Z,10.00
2023-02-11T18:01:04.332Z,10.00
2023-02-11T18:03:33.332Z,10.00
2023-02-11T18:06:03.235Z,10.10
2023-02-11T18:08:32.721Z,10.10
2023-02-11T18:11:01.527Z,10.10
2023-02-11T18:13:31.093Z,10.00
2023-02-11T18:16:15.651Z,10.20
2023-02-11T18:18:44.983Z,10.10
2023-02-11T18:21:16.152Z,10.10
2023-02-11T18:23:45.643Z,10.10
2023-02-11T18:26:16.328Z,10.10
2023-02-11T18:28:46.128Z,10.10
2023-02-11T18:31:15.636Z,10.10
2023-02-11T18:33:44.514Z,10.10
2023-02-11T18:36:15.402Z,10.10
2023-02-11T18:38:47.047Z,10.10
2023-02-11T18:41:15.993Z,10.10
2023-02-11T18:43:44.881Z,9.50
2023-02-11T18:46:15.164Z,10.10
2023-02-11T18:48:45.000Z,10.10
2023-02-11T18:51:18.225Z,10.10
2023-02-11T18:53:46.960Z,10.10
2023-02-11T18:56:18.125Z,10.20
2023-02-11T19:03:48.146Z,10.10
2023-02-11T19:06:24.791Z,10.20
2023-02-11T19:08:56.398Z,10.50
2023-02-11T19:11:43.779Z,10.20
2023-02-11T19:14:12.493Z,10.20
2023-02-11T19:16:43.764Z,10.10
2023-02-11T19:21:42.082Z,10.20
2023-02-11T19:24:11.464Z,10.20
2023-02-11T19:26:39.998Z,10.20
2023-02-11T19:29:09.105Z,10.20
2023-02-11T19:31:37.935Z,10.20
2023-02-11T19:34:07.864Z,10.20
2023-02-11T19:36:36.749Z,10.10
2023-02-11T19:39:06.107Z,10.20
2023-02-11T19:41:35.220Z,10.20
2023-02-11T19:44:04.999Z,10.20
2023-02-11T19:46:36.809Z,10.20
2023-02-11T19:49:06.156Z,10.20
2023-02-11T19:51:36.762Z,10.40
2023-02-11T19:54:06.006Z,10.30
2023-02-11T19:56:34.895Z,10.30
2023-02-11T19:59:03.808Z,10.20
2023-02-11T20:01:32.437Z,10.30
2023-02-11T20:04:01.046Z,10.50
2023-02-11T20:06:32.367Z,10.20
2023-02-11T20:09:03.513Z,10.20
2023-02-11T20:11:33.145Z,10.20
2023-02-11T20:14:02.266Z,10.20
2023-02-11T20:16:47.074Z,10.20
2023-02-11T20:19:02.996Z,10.20
2023-02-11T20:21:33.141Z,10.20
2023-02-11T20:24:01.813Z,10.20
2023-02-11T20:26:33.077Z,10.20
2023-02-11T20:29:04.807Z,10.20
2023-02-11T20:31:34.443Z,10.20
2023-02-11T20:34:03.210Z,10.10
2023-02-11T20:36:35.597Z,10.20
2023-02-11T20:39:06.275Z,10.10
2023-02-11T20:41:39.288Z,10.10
2023-02-11T20:44:10.740Z,10.10
2023-02-11T20:46:41.987Z,10.10
2023-02-11T20:49:16.188Z,10.20
2023-02-11T20:51:45.064Z,10.10
2023-02-11T20:54:17.144Z,10.10
2023-02-11T20:56:48.173Z,10.10
2023-02-11T20:59:17.522Z,10.10
2023-02-11T21:01:48.906Z,10.10
2023-02-11T21:04:20.702Z,10.10
2023-02-11T21:06:52.291Z,10.10
2023-02-11T21:09:23.610Z,10.10
2023-02-11T21:11:53.295Z,10.10
2023-02-11T21:14:24.000Z,10.00
2023-02-11T21:16:53.105Z,10.10
2023-02-11T21:19:21.702Z,10.10
2023-02-11T21:21:50.403Z,10.10
2023-02-11T21:24:18.995Z,10.10
2023-02-11T21:26:47.548Z,10.10
2023-02-11T21:29:16.202Z,10.10
2023-02-11T21:31:44.951Z,10.10
2023-02-11T21:34:14.253Z,9.60
2023-02-11T21:36:44.655Z,10.10
2023-02-11T21:39:13.777Z,10.10
2023-02-11T21:41:42.335Z,10.10
2023-02-11T21:44:10.966Z,10.10
2023-02-11T21:46:39.726Z,10.00
2023-02-11T21:49:08.373Z,10.00
2023-02-11T21:51:36.998Z,10.10
2023-02-11T21:54:05.729Z,10.00
2023-02-11T21:56:35.469Z,10.00
2023-02-11T21:59:04.063Z,10.00
2023-02-11T22:01:35.800Z,10.00
2023-02-11T22:04:04.820Z,10.10
2023-02-11T22:06:35.388Z,10.00
2023-02-11T22:09:06.887Z,10.10
2023-02-11T22:11:36.256Z,10.00
2023-02-11T22:14:05.078Z,10.10
2023-02-11T22:16:33.912Z,10.00
2023-02-11T22:19:06.727Z,10.00
2023-02-11T22:24:03.663Z,10.00
2023-02-11T22:26:32.275Z,10.00
2023-02-11T22:31:34.899Z,10.00
2023-02-11T22:34:05.083Z,10.00
2023-02-11T22:36:39.234Z,10.00
2023-02-11T22:39:13.680Z,10.00
2023-02-11T22:41:43.601Z,10.00
2023-02-11T22:44:12.383Z,10.00
2023-02-11T22:46:41.317Z,10.00
2023-02-11T22:49:12.213Z,10.00
2023-02-11T22:51:41.007Z,10.00
2023-02-11T22:54:12.710Z,10.00
2023-02-11T22:56:41.887Z,10.00
2023-02-11T22:59:13.550Z,10.00
2023-02-11T23:01:43.042Z,10.00
2023-02-11T23:04:14.621Z,10.00
2023-02-11T23:06:43.347Z,10.10
2023-02-11T23:09:14.752Z,10.10
2023-02-11T23:11:43.280Z,10.00
2023-02-11T23:14:12.037Z,10.00
2023-02-11T23:16:40.885Z,10.00
2023-02-11T23:19:12.201Z,10.00
2023-02-11T23:21:41.107Z,10.00
2023-02-11T23:24:12.483Z,10.10
2023-02-11T23:26:42.575Z,10.00
2023-02-11T23:29:12.091Z,10.00
2023-02-11T23:31:45.161Z,10.10
2023-02-11T23:34:19.399Z,10.00
2023-02-11T23:36:47.925Z,10.10
2023-02-11T23:39:17.117Z,10.00
2023-02-11T23:41:46.521Z,10.00
2023-02-11T23:44:15.084Z,10.10
2023-02-11T23:46:43.625Z,10.10
2023-02-11T23:49:12.182Z,10.10
2023-02-11T23:51:40.738Z,10.10
2023-02-11T23:54:10.896Z,10.20
2023-02-11T23:56:39.444Z,10.20
2023-02-11T23:59:07.996Z,10.20
